createdAt,value
2019-03-12T00:02:29.368Z,76.00
2019-03-12T00:05:09.476Z,76.70
2019-03-12T00:07:41.680Z,77.50
2019-03-12T00:10:11.078Z,76.00
2019-03-12T00:12:40.396Z,75.60
2019-03-12T00:15:12.196Z,76.90
2019-03-12T00:17:42.691Z,76.40
2019-03-12T00:20:12.956Z,75.40
2019-03-12T00:22:48.807Z,76.90
2019-03-12T00:25:19.222Z,78.10
2019-03-12T00:27:52.182Z,79.10
2019-03-12T00:30:33.836Z,77.10
2019-03-12T00:33:03.208Z,78.10
2019-03-12T00:35:33.470Z,78.00
2019-03-12T00:38:03.100Z,78.80
2019-03-12T00:40:34.779Z,76.80
2019-03-12T00:43:03.850Z,76.00
2019-03-12T00:45:33.873Z,78.90
2019-03-12T00:48:03.509Z,75.20
2019-03-12T00:51:23.597Z,76.90
2019-03-12T00:53:53.657Z,76.30
2019-03-12T00:56:24.573Z,75.30
2019-03-12T00:58:55.157Z,75.60
2019-03-12T01:01:26.237Z,75.80
2019-03-12T01:03:56.072Z,76.60
2019-03-12T01:06:26.430Z,76.40
2019-03-12T01:08:55.749Z,76.40
2019-03-12T01:11:27.435Z,78.70
2019-03-12T01:13:57.312Z,77.90
2019-03-12T01:16:28.288Z,80.40
2019-03-12T01:18:59.878Z,78.40
2019-03-12T01:21:28.915Z,80.50
2019-03-12T01:23:57.994Z,80.80
2019-03-12T01:26:27.864Z,80.30
2019-03-12T01:28:58.429Z,80.50
2019-03-12T01:31:29.326Z,78.90
2019-03-12T01:33:59.832Z,79.40
2019-03-12T01:36:28.929Z,79.70
2019-03-12T01:38:58.732Z,79.70
2019-03-12T01:41:28.719Z,79.00
2019-03-12T01:43:57.845Z,78.70
2019-03-12T01:46:27.471Z,79.50
2019-03-12T01:48:56.647Z,81.40
2019-03-12T01:51:25.775Z,80.70
2019-03-12T01:53:55.338Z,80.80
2019-03-12T01:56:25.130Z,79.80
2019-03-12T01:58:55.393Z,80.50
2019-03-12T02:01:24.901Z,81.30
2019-03-12T02:03:56.222Z,79.80
2019-03-12T02:06:25.710Z,77.50
2019-03-12T02:08:55.458Z,80.80
2019-03-12T02:11:24.969Z,77.60
2019-03-12T02:13:54.459Z,77.80
2019-03-12T02:16:24.120Z,77.40
2019-03-12T02:18:53.947Z,77.70
2019-03-12T02:21:23.464Z,78.90
2019-03-12T02:23:53.211Z,77.60
2019-03-12T02:26:22.728Z,77.80
2019-03-12T02:28:52.128Z,77.40
2019-03-12T02:31:22.758Z,76.20
2019-03-12T02:33:52.376Z,76.80
2019-03-12T02:36:21.929Z,75.80
2019-03-12T02:38:51.307Z,76.80
2019-03-12T02:41:20.701Z,78.90
2019-03-12T02:43:50.470Z,76.60
2019-03-12T02:46:20.011Z,76.00
2019-03-12T02:48:49.039Z,77.60
2019-03-12T02:51:18.958Z,75.60
2019-03-12T02:53:48.339Z,76.30
2019-03-12T02:56:17.824Z,78.30
2019-03-12T02:58:47.500Z,78.30
2019-03-12T03:01:17.122Z,76.40
2019-03-12T03:03:48.650Z,77.40
2019-03-12T03:06:35.672Z,76.60
2019-03-12T03:09:06.467Z,76.10
2019-03-12T03:11:36.552Z,78.20
2019-03-12T03:14:06.810Z,78.50
2019-03-12T03:16:36.721Z,77.00
2019-03-12T03:19:05.813Z,75.80
2019-03-12T03:21:34.946Z,78.10
2019-03-12T03:24:04.124Z,76.90
2019-03-12T03:26:36.076Z,76.10
2019-03-12T03:29:05.413Z,78.50
2019-03-12T03:31:36.441Z,75.90
2019-03-12T03:34:06.090Z,76.50
2019-03-12T03:36:35.483Z,78.70
2019-03-12T03:39:07.238Z,76.60
2019-03-12T03:41:37.229Z,76.30
2019-03-12T03:44:06.392Z,78.90
2019-03-12T03:46:35.493Z,78.70
2019-03-12T03:49:05.341Z,76.70
2019-03-12T03:51:35.156Z,76.30
2019-03-12T03:54:06.948Z,76.40
2019-03-12T03:56:36.358Z,76.70
2019-03-12T03:59:05.435Z,77.30
2019-03-12T04:01:35.284Z,77.50
2019-03-12T04:04:04.842Z,77.90
2019-03-12T04:06:34.668Z,76.40
2019-03-12T04:09:04.894Z,77.50
2019-03-12T04:11:40.440Z,77.70
2019-03-12T04:14:12.312Z,77.00
2019-03-12T04:16:41.481Z,78.60
2019-03-12T04:19:10.751Z,76.40
2019-03-12T04:21:40.516Z,77.20
2019-03-12T04:24:11.813Z,76.10
2019-03-12T04:26:52.192Z,78.50
2019-03-12T04:29:23.494Z,77.10
2019-03-12T04:31:53.153Z,77.90
2019-03-12T04:34:27.589Z,78.70
2019-03-12T04:36:58.934Z,77.30
2019-03-12T04:39:28.671Z,75.90
2019-03-12T04:41:58.955Z,76.90
2019-03-12T04:44:28.281Z,77.80
2019-03-12T04:46:57.753Z,77.80
2019-03-12T04:49:27.985Z,77.30
2019-03-12T04:51:57.674Z,76.00
2019-03-12T04:54:27.393Z,75.60
2019-03-12T04:56:57.313Z,75.50
2019-03-12T04:59:27.075Z,76.00
2019-03-12T05:01:57.325Z,77.50
2019-03-12T05:04:26.852Z,75.80
2019-03-12T05:06:56.359Z,78.30
2019-03-12T05:09:27.510Z,75.30
2019-03-12T05:11:56.949Z,75.10
2019-03-12T05:14:30.833Z,75.10
2019-03-12T05:17:26.065Z,76.60
2019-03-12T05:19:56.163Z,77.00
2019-03-12T05:22:26.232Z,76.30
2019-03-12T05:25:01.442Z,76.10
2019-03-12T05:27:31.189Z,75.40
2019-03-12T05:30:03.513Z,76.80
2019-03-12T05:32:35.954Z,75.20
2019-03-12T05:35:05.611Z,75.20
2019-03-12T05:37:38.561Z,76.20
2019-03-12T05:40:10.452Z,75.50
2019-03-12T05:42:39.781Z,76.60
2019-03-12T05:45:10.242Z,76.00
2019-03-12T05:47:40.109Z,75.50
2019-03-12T05:50:10.262Z,75.00
2019-03-12T05:52:39.668Z,76.80
2019-03-12T05:55:09.097Z,74.60
2019-03-12T05:57:38.454Z,75.10
2019-03-12T06:00:10.599Z,76.30
2019-03-12T06:02:39.768Z,76.60
2019-03-12T06:05:16.332Z,77.10
2019-03-12T06:07:45.443Z,76.40
2019-03-12T06:10:40.473Z,75.30
2019-03-12T06:13:11.685Z,74.30
2019-03-12T06:15:41.866Z,76.30
2019-03-12T06:18:13.388Z,74.60
2019-03-12T06:20:43.560Z,75.40
2019-03-12T06:23:16.783Z,75.20
2019-03-12T06:25:46.832Z,75.60
2019-03-12T06:28:18.572Z,76.30
2019-03-12T06:31:07.023Z,75.20
2019-03-12T06:34:12.486Z,74.40
2019-03-12T06:37:04.534Z,76.00
2019-03-12T06:39:45.127Z,74.80
2019-03-12T06:42:29.424Z,74.40
2019-03-12T06:45:18.063Z,74.30
2019-03-12T06:48:05.855Z,74.10
2019-03-12T06:50:48.368Z,73.30
2019-03-12T06:53:35.577Z,75.50
2019-03-12T06:56:29.571Z,73.50
2019-03-12T06:59:25.346Z,75.20
2019-03-12T07:02:12.548Z,73.80
2019-03-12T07:04:54.279Z,74.60
2019-03-12T07:07:45.842Z,74.40
2019-03-12T07:10:27.226Z,72.90
2019-03-12T07:13:06.006Z,70.70
2019-03-12T07:15:54.551Z,72.20
2019-03-12T07:18:46.460Z,69.50
2019-03-12T07:21:34.464Z,71.20
2019-03-12T07:24:23.219Z,70.90
2019-03-12T07:27:10.615Z,73.30
2019-03-12T07:30:09.334Z,70.20
2019-03-12T07:33:02.912Z,70.70
2019-03-12T07:35:54.010Z,71.20
2019-03-12T07:38:39.790Z,69.40
2019-03-12T07:41:32.382Z,70.30
2019-03-12T07:44:39.074Z,71.10
2019-03-12T07:47:35.173Z,68.50
2019-03-12T07:50:12.536Z,70.00
2019-03-12T07:53:00.139Z,70.70
2019-03-12T07:55:50.458Z,67.40
2019-03-12T07:58:41.254Z,68.20
2019-03-12T08:01:16.972Z,69.80
2019-03-12T08:04:08.738Z,67.70
2019-03-12T08:06:50.163Z,69.00
2019-03-12T08:09:52.814Z,67.80
2019-03-12T08:12:34.494Z,65.50
2019-03-12T08:15:23.913Z,61.40
2019-03-12T08:18:12.554Z,61.70
2019-03-12T08:20:53.361Z,57.70
2019-03-12T08:23:37.545Z,53.90
2019-03-12T08:26:36.856Z,52.70
2019-03-12T08:29:26.960Z,53.20
2019-03-12T08:32:02.757Z,52.50
2019-03-12T08:35:09.764Z,50.90
2019-03-12T08:37:46.737Z,48.50
2019-03-12T08:40:23.483Z,48.30
2019-03-12T08:43:18.291Z,47.30
2019-03-12T08:46:18.197Z,47.20
2019-03-12T08:49:16.358Z,47.20
2019-03-12T08:52:01.239Z,44.70
2019-03-12T08:54:54.387Z,42.20
2019-03-12T08:57:35.401Z,44.50
2019-03-12T09:00:31.842Z,41.90
2019-03-12T09:03:11.430Z,46.20
2019-03-12T09:05:48.828Z,45.30
2019-03-12T09:08:31.679Z,45.00
2019-03-12T09:14:53.353Z,37.80
2019-03-12T09:17:44.896Z,44.80
2019-03-12T09:20:39.128Z,48.60
2019-03-12T09:23:22.016Z,44.50
2019-03-12T09:26:03.015Z,42.10
2019-03-12T09:29:06.687Z,37.50
2019-03-12T09:31:50.900Z,36.60
2019-03-12T09:34:35.750Z,35.70
2019-03-12T09:37:36.612Z,32.60
2019-03-12T09:40:29.540Z,29.10
2019-03-12T09:43:23.011Z,27.10
2019-03-12T09:46:10.430Z,29.00
2019-03-12T09:48:59.158Z,34.90
2019-03-12T09:51:36.483Z,39.80
2019-03-12T09:54:21.830Z,42.70
2019-03-12T09:56:59.510Z,46.30
2019-03-12T09:59:50.593Z,49.70
2019-03-12T10:02:38.998Z,49.50
2019-03-12T10:05:33.498Z,48.40
2019-03-12T10:08:15.579Z,46.80
2019-03-12T10:11:01.242Z,46.70
2019-03-12T10:14:01.522Z,43.80
2019-03-12T10:17:05.261Z,46.80
2019-03-12T10:19:43.449Z,44.70
2019-03-12T10:22:31.176Z,38.30
2019-03-12T10:25:19.975Z,37.30
2019-03-12T10:27:59.851Z,33.60
2019-03-12T10:30:55.570Z,28.90
2019-03-12T10:33:33.741Z,29.30
2019-03-12T10:36:12.323Z,27.80
2019-03-12T10:39:36.402Z,27.10
2019-03-12T10:42:33.531Z,29.10
2019-03-12T10:45:18.271Z,35.60
2019-03-12T10:47:47.859Z,35.10
2019-03-12T10:50:17.812Z,37.80
2019-03-12T10:52:47.516Z,42.50
2019-03-12T10:55:17.145Z,43.10
2019-03-12T10:57:46.749Z,42.60
2019-03-12T11:00:16.189Z,41.60
2019-03-12T11:02:45.442Z,47.20
2019-03-12T11:05:14.695Z,45.00
2019-03-12T11:07:44.480Z,43.80
2019-03-12T11:10:14.167Z,42.00
2019-03-12T11:12:43.762Z,47.50
2019-03-12T11:15:13.773Z,44.70
2019-03-12T11:17:49.643Z,44.50
2019-03-12T11:20:15.337Z,40.50
2019-03-12T11:22:46.669Z,44.00
2019-03-12T11:25:26.477Z,43.00
2019-03-12T11:27:48.023Z,42.70
2019-03-12T11:30:18.796Z,44.40
2019-03-12T11:32:48.939Z,42.10
2019-03-12T11:35:19.467Z,41.30
2019-03-12T11:37:49.346Z,41.50
2019-03-12T11:40:19.385Z,39.70
2019-03-12T11:42:49.631Z,43.30
2019-03-12T11:45:25.781Z,41.50
2019-03-12T11:47:51.754Z,42.10
2019-03-12T11:50:21.543Z,43.40
2019-03-12T11:52:55.607Z,43.30
2019-03-12T11:55:22.763Z,44.00
2019-03-12T11:57:53.605Z,42.80
2019-03-12T12:00:28.777Z,43.40
2019-03-12T12:03:00.215Z,42.00
2019-03-12T12:05:31.492Z,42.40
2019-03-12T12:08:01.269Z,42.90
2019-03-12T12:10:31.525Z,41.20
2019-03-12T12:13:01.049Z,39.50
2019-03-12T12:15:31.439Z,38.00
2019-03-12T12:18:02.113Z,44.00
2019-03-12T12:20:31.327Z,42.20
2019-03-12T12:23:02.737Z,40.50
2019-03-12T12:25:32.448Z,41.20
2019-03-12T12:28:01.660Z,42.40
2019-03-12T12:30:38.896Z,42.40
2019-03-12T12:33:09.225Z,39.90
2019-03-12T12:35:39.043Z,40.90
2019-03-12T12:38:11.023Z,40.40
2019-03-12T12:40:40.494Z,37.10
2019-03-12T12:43:10.247Z,39.30
2019-03-12T12:45:39.003Z,40.60
2019-03-12T12:48:07.551Z,40.20
2019-03-12T12:50:35.769Z,41.10
2019-03-12T12:53:04.974Z,40.40
2019-03-12T12:55:33.229Z,39.70
2019-03-12T12:58:02.670Z,38.20
2019-03-12T13:00:37.954Z,39.90
2019-03-12T13:25:58.614Z,38.60
2019-03-12T13:29:02.810Z,38.40
2019-03-12T13:31:33.241Z,38.30
2019-03-12T13:34:18.852Z,36.40
2019-03-12T13:37:12.723Z,40.00
2019-03-12T13:45:02.175Z,36.10
2019-03-12T13:51:01.130Z,38.20
2019-03-12T13:53:56.332Z,37.90
2019-03-12T13:56:51.966Z,38.60
2019-03-12T13:59:55.197Z,37.70
2019-03-12T14:03:29.236Z,37.30
2019-03-12T14:06:31.548Z,36.20
2019-03-12T14:09:09.995Z,35.30
2019-03-12T14:24:10.938Z,35.50
2019-03-12T14:26:43.225Z,36.80
2019-03-12T14:32:59.693Z,33.40
2019-03-12T14:35:29.246Z,34.30
2019-03-12T14:37:59.582Z,34.60
2019-03-12T14:40:29.493Z,32.20
2019-03-12T14:42:59.714Z,32.40
2019-03-12T14:45:31.868Z,33.50
2019-03-12T14:48:01.259Z,35.60
2019-03-12T14:50:31.548Z,31.60
2019-03-12T14:53:07.764Z,32.50
2019-03-12T14:55:39.178Z,31.80
2019-03-12T14:58:08.635Z,33.80
2019-03-12T15:00:38.339Z,34.90
2019-03-12T15:03:10.450Z,35.30
2019-03-12T15:05:40.341Z,33.70
2019-03-12T15:08:12.175Z,30.90
2019-03-12T15:10:40.259Z,31.00
2019-03-12T15:13:10.741Z,31.80
2019-03-12T15:15:40.414Z,32.80
2019-03-12T15:18:09.626Z,34.10
2019-03-12T15:20:43.467Z,36.30
2019-03-12T15:23:18.087Z,35.50
2019-03-12T15:25:47.009Z,35.70
2019-03-12T15:28:23.592Z,35.70
2019-03-12T15:30:53.476Z,36.00
2019-03-12T15:33:23.084Z,34.30
2019-03-12T15:35:53.847Z,34.00
2019-03-12T15:38:24.489Z,34.20
2019-03-12T15:40:55.824Z,34.30
2019-03-12T15:43:26.253Z,36.60
2019-03-12T15:45:56.507Z,35.40
2019-03-12T15:48:26.270Z,34.80
2019-03-12T15:50:55.581Z,32.20
2019-03-12T15:53:26.933Z,34.60
2019-03-12T15:55:57.155Z,35.70
2019-03-12T15:58:29.511Z,30.00
2019-03-12T16:01:02.420Z,32.20
2019-03-12T16:03:31.900Z,34.90
2019-03-12T16:06:02.044Z,33.80
2019-03-12T16:08:30.234Z,35.00
2019-03-12T16:11:00.576Z,33.40
2019-03-12T16:13:33.055Z,33.90
2019-03-12T16:16:04.412Z,34.60
2019-03-12T16:18:33.647Z,34.30
2019-03-12T16:21:04.788Z,35.60
2019-03-12T16:23:34.839Z,33.90
2019-03-12T16:26:03.401Z,34.70
2019-03-12T16:28:31.958Z,35.60
2019-03-12T16:31:01.932Z,36.40
2019-03-12T16:33:30.321Z,36.90
2019-03-12T16:35:58.561Z,37.30
2019-03-12T16:38:27.425Z,36.70
2019-03-12T16:40:56.011Z,35.60
2019-03-12T16:43:27.378Z,37.00
2019-03-12T16:45:56.331Z,36.10
2019-03-12T16:48:24.677Z,37.90
2019-03-12T16:50:52.861Z,36.80
2019-03-12T16:53:24.629Z,38.10
2019-03-12T16:55:53.548Z,38.30
2019-03-12T16:58:24.159Z,38.70
2019-03-12T17:00:52.608Z,37.50
2019-03-12T17:03:20.817Z,37.40
2019-03-12T17:05:49.617Z,38.40
2019-03-12T17:08:19.256Z,39.50
2019-03-12T17:10:56.861Z,38.10
2019-03-12T17:13:21.194Z,39.50
2019-03-12T17:15:54.739Z,39.40
2019-03-12T17:18:23.784Z,40.40
2019-03-12T17:20:51.982Z,39.50
2019-03-12T17:23:22.778Z,39.20
2019-03-12T17:25:52.581Z,39.20
2019-03-12T17:28:23.957Z,39.30
2019-03-12T17:30:53.462Z,39.80
2019-03-12T17:33:23.268Z,41.20
2019-03-12T17:35:53.595Z,41.30
2019-03-12T17:38:24.119Z,39.80
2019-03-12T17:40:53.907Z,41.90
2019-03-12T17:43:26.311Z,42.20
2019-03-12T17:45:58.684Z,42.40
2019-03-12T17:48:31.611Z,43.20
2019-03-12T17:51:03.584Z,43.10
2019-03-12T17:54:00.222Z,43.40
2019-03-12T17:56:31.105Z,43.70
2019-03-12T17:59:03.223Z,43.30
2019-03-12T18:01:32.268Z,44.00
2019-03-12T18:04:02.288Z,45.30
2019-03-12T18:06:34.917Z,43.60
2019-03-12T18:09:08.603Z,44.40
2019-03-12T18:11:37.451Z,44.40
2019-03-12T18:14:06.919Z,44.40
2019-03-12T18:16:41.227Z,45.80
2019-03-12T18:19:08.790Z,44.20
2019-03-12T18:21:38.647Z,46.50
2019-03-12T18:24:16.652Z,47.20
2019-03-12T18:26:46.406Z,46.30
2019-03-12T18:29:23.983Z,45.90
2019-03-12T18:31:53.593Z,45.90
2019-03-12T18:34:23.221Z,44.10
2019-03-12T18:36:58.155Z,45.70
2019-03-12T18:39:27.846Z,45.90
2019-03-12T18:41:59.507Z,45.60
2019-03-12T18:44:29.476Z,46.70
2019-03-12T18:47:02.653Z,46.00
2019-03-12T18:49:41.263Z,45.60
2019-03-12T18:52:11.171Z,45.70
2019-03-12T18:54:53.718Z,45.90
2019-03-12T18:57:23.654Z,45.70
2019-03-12T18:59:56.182Z,46.60
2019-03-12T19:02:28.067Z,46.20
2019-03-12T19:05:07.951Z,45.60
2019-03-12T19:07:43.812Z,44.20
2019-03-12T19:10:13.691Z,44.10
2019-03-12T19:12:44.819Z,45.00
2019-03-12T19:15:15.557Z,45.60
2019-03-12T19:17:44.959Z,45.90
2019-03-12T19:20:15.963Z,45.10
2019-03-12T19:22:45.676Z,45.60
2019-03-12T19:25:17.590Z,44.70
2019-03-12T19:28:00.704Z,46.50
2019-03-12T19:30:32.597Z,46.10
2019-03-12T19:33:04.351Z,46.00
2019-03-12T19:35:36.446Z,46.40
2019-03-12T19:38:05.847Z,46.60
2019-03-12T19:40:36.353Z,46.00
2019-03-12T19:43:12.006Z,46.90
2019-03-12T19:45:42.284Z,46.80
2019-03-12T19:48:21.563Z,46.20
2019-03-12T19:50:51.607Z,46.60
2019-03-12T19:53:28.461Z,46.20
2019-03-12T19:55:57.351Z,47.20
2019-03-12T19:58:28.892Z,46.90
2019-03-12T20:01:04.612Z,46.10
2019-03-12T20:03:34.035Z,47.30
2019-03-12T20:06:03.319Z,46.20
2019-03-12T20:08:34.054Z,46.40
2019-03-12T20:11:28.345Z,46.40
2019-03-12T20:14:30.412Z,47.20
2019-03-12T20:17:29.664Z,47.60
2019-03-12T20:20:46.518Z,47.10
2019-03-12T20:23:52.301Z,46.80
2019-03-12T20:27:05.954Z,46.10
2019-03-12T20:30:10.280Z,47.00
2019-03-12T20:33:07.405Z,46.90
2019-03-12T20:36:16.434Z,46.70
2019-03-12T20:39:41.187Z,48.10
2019-03-12T20:42:40.436Z,48.00
2019-03-12T20:45:45.434Z,46.90
2019-03-12T20:49:09.865Z,47.30
2019-03-12T20:52:10.294Z,45.80
2019-03-12T20:55:24.864Z,47.20
2019-03-12T20:58:46.631Z,46.70
2019-03-12T21:02:14.553Z,47.30
2019-03-12T21:05:14.738Z,47.70
2019-03-12T21:08:38.945Z,47.20
2019-03-12T21:11:44.311Z,47.00
2019-03-12T21:14:52.648Z,46.70
2019-03-12T21:17:45.556Z,47.20
2019-03-12T21:20:53.069Z,47.30
2019-03-12T21:24:06.572Z,47.20
2019-03-12T21:27:05.785Z,46.90
2019-03-12T21:29:46.577Z,47.20
2019-03-12T21:32:25.403Z,46.40
2019-03-12T21:34:54.923Z,46.10
2019-03-12T21:37:24.767Z,46.20
2019-03-12T21:39:56.153Z,45.80
2019-03-12T21:42:27.349Z,45.70
2019-03-12T21:45:02.730Z,46.20
2019-03-12T21:47:43.079Z,46.10
2019-03-12T21:50:53.186Z,45.60
2019-03-12T21:53:24.767Z,45.70
2019-03-12T21:56:14.827Z,46.10
2019-03-12T21:58:59.836Z,45.60
2019-03-12T22:01:29.227Z,46.80
2019-03-12T22:03:58.404Z,46.30
2019-03-12T22:06:30.942Z,46.20
2019-03-12T22:09:04.415Z,46.10
2019-03-12T22:11:34.152Z,46.30
2019-03-12T22:14:05.774Z,45.90
2019-03-12T22:16:39.137Z,45.80
2019-03-12T22:19:08.560Z,45.80
2019-03-12T22:21:48.703Z,45.60
2019-03-12T22:24:23.354Z,45.70
2019-03-12T22:26:53.446Z,45.00
2019-03-12T22:29:31.826Z,45.50
2019-03-12T22:32:02.081Z,45.30
2019-03-12T22:34:32.256Z,45.30
2019-03-12T22:37:05.080Z,45.70
2019-03-12T22:39:38.084Z,45.40
2019-03-12T22:42:07.524Z,45.10
2019-03-12T22:44:47.161Z,45.90
2019-03-12T22:47:16.933Z,44.50
2019-03-12T22:49:55.266Z,45.00
2019-03-12T22:52:28.497Z,45.20
2019-03-12T22:54:58.841Z,46.20
2019-03-12T22:57:32.895Z,45.40
2019-03-12T23:00:03.072Z,45.70
2019-03-12T23:02:40.998Z,44.10
2019-03-12T23:05:11.304Z,45.30
2019-03-12T23:07:43.592Z,44.90
2019-03-12T23:10:23.197Z,45.20
2019-03-12T23:12:59.534Z,45.40
2019-03-12T23:16:17.024Z,45.50
2019-03-12T23:19:13.347Z,46.10
2019-03-12T23:22:30.954Z,44.30
2019-03-12T23:26:00.081Z,46.00
2019-03-12T23:29:50.825Z,44.90
2019-03-12T23:33:33.085Z,45.80
2019-03-12T23:36:38.532Z,45.30
2019-03-12T23:39:25.892Z,46.80
2019-03-12T23:41:52.386Z,46.40
2019-03-12T23:45:02.310Z,46.60
2019-03-12T23:48:14.515Z,46.30
2019-03-12T23:50:45.044Z,46.80
2019-03-12T23:53:15.654Z,46.70
2019-03-12T23:55:45.834Z,45.90
2019-03-12T23:58:15.300Z,45.20
